Latest Weather Observations for Lajamanu

IDD60801

Issued at 4:35 pm CST Wednesday 16 April 2014 (issued every 30 minutes, with the page automatically refreshed every 10 minutes)

About weather observations | Map of weather stations | Latest weather observations for NT | Other Formats
Station Details ID: 014829 Name: LAJAMANU AIRPORT Lat: -18.33 Lon: 130.64 Height: 315.6 m
Data from the previous 72 hours. | See also: Recent months at Lajamanu
Date/Time
CST
Temp
°C
App
Temp
°C
Dew
Point
Rel
Hum
%
Delta-T
°C
Wind Press
QNH
hPa
Press
MSL
hPa
Rain
since 9 am
mm
Dir
 
Spd
km/h
Gust
km/h
Spd
kts
Gust
kts
16/04:30pm 31.1 27.7 9.3 26 12.4 SE 17 30 9 16 1012.6 - 0.0
16/04:00pm 31.2 28.9 10.5 28 12.0 E 13 20 7 11 1012.7 - 0.0
16/03:30pm 31.3 28.5 10.1 27 12.2 ESE 15 24 8 13 1012.8 - 0.0
16/03:00pm 30.9 27.1 9.2 26 12.3 SSE 19 24 10 13 1013.0 1011.1 0.0
16/02:30pm 31.1 27.4 9.3 26 12.4 ESE 19 33 10 18 1013.4 - 0.0
16/02:00pm 30.8 27.1 9.6 27 12.1 E 19 30 10 16 1013.8 - 0.0
16/01:30pm 30.4 25.7 9.3 27 12.0 ESE 24 35 13 19 1014.2 - 0.0
16/01:00pm 30.0 25.7 9.5 28 11.7 ESE 22 30 12 16 1014.8 - 0.0
16/12:30pm 29.9 25.9 10.5 30 11.2 ESE 22 30 12 16 1015.5 - 0.0
16/12:00pm 29.6 25.5 10.2 30 11.1 ESE 22 28 12 15 1015.9 1014.1 0.0
16/11:30am 28.7 24.9 9.9 31 10.7 E 20 28 11 15 1016.4 - 0.0
16/11:00am 27.5 22.8 9.3 32 10.2 ESE 24 32 13 17 1016.7 - 0.0
16/10:30am 26.5 22.2 9.4 34 9.5 ESE 22 33 12 18 1016.7 - 0.0
16/10:00am 25.7 21.5 9.9 37 8.8 ESE 22 35 12 19 1016.8 - 0.0
16/09:30am 24.7 20.6 10.2 40 8.1 ESE 22 30 12 16 1016.6 - 0.0
16/09:00am 22.9 19.4 11.0 47 6.7 ESE 20 32 11 17 1016.4 1014.5 0.0
16/08:30am 20.7 18.6 11.3 55 5.3 SSE 13 20 7 11 1016.1 - 0.0
16/08:00am 19.0 17.8 11.6 62 4.1 SSE 9 13 5 7 1016.0 - 0.0
16/07:30am 17.6 16.7 11.2 66 3.5 SSE 7 9 4 5 1015.7 - 0.0
16/07:00am 17.0 15.7 11.1 68 3.2 SSE 9 11 5 6 1015.4 - 0.0
16/06:30am 17.4 16.1 11.2 67 3.4 SE 9 11 5 6 1015.0 - 0.0
16/06:00am 18.0 15.9 11.1 64 3.8 SE 13 17 7 9 1014.7 1012.9 0.0
16/05:30am 18.0 16.3 11.3 65 3.7 SSE 11 13 6 7 1014.5 - 0.0
16/05:00am 18.2 17.0 11.5 65 3.7 SSE 9 13 5 7 1014.4 - 0.0
16/04:30am 18.1 17.4 11.9 67 3.5 SSE 7 9 4 5 1014.2 - 0.0
16/04:00am 18.6 17.5 12.1 66 3.7 SSE 9 11 5 6 1014.1 - 0.0
16/03:30am 17.8 17.4 12.9 73 2.8 S 7 11 4 6 1014.1 - 0.0
16/03:00am 18.0 17.6 12.9 72 2.9 S 7 9 4 5 1014.1 1012.2 0.0
16/02:30am 18.3 18.5 11.8 66 3.6 S 2 7 1 4 1014.4 - 0.0
16/02:00am 19.6 19.0 12.4 63 4.1 SSE 7 11 4 6 1014.5 - 0.0
16/01:30am 19.7 19.2 12.7 64 4.0 S 7 11 4 6 1014.8 - 0.0
16/01:00am 18.7 18.3 12.5 67 3.5 SSE 6 9 3 5 1015.0 - 0.0
16/12:30am 19.5 19.4 13.2 67 3.6 S 6 7 3 4 1015.1 - 0.0
16/12:00am 20.6 20.1 12.6 60 4.6 SSE 7 11 4 6 1015.3 1013.5 0.0
 
Date/Time
CST
Temp
°C
App
Temp
°C
Dew
Point
Rel
Hum
%
Delta-T
°C
Wind Press
QNH
hPa
Press
MSL
hPa
Rain
since 9 am
mm
Dir
 
Spd
km/h
Gust
km/h
Spd
kts
Gust
kts
15/11:30pm 20.2 19.9 13.4 65 3.9 SSE 7 9 4 5 1015.2 - 0.0
15/11:00pm 20.3 20.0 13.3 64 4.1 SSE 7 9 4 5 1015.3 - 0.0
15/10:30pm 20.0 19.5 12.7 63 4.2 SE 7 9 4 5 1015.4 - 0.0
15/10:00pm 20.9 20.3 12.3 58 4.9 SE 7 9 4 5 1015.3 - 0.0
15/09:30pm 22.4 21.5 12.6 54 5.7 SE 9 11 5 6 1015.2 - 0.0
15/09:00pm 22.7 22.0 13.2 55 5.5 SE 9 11 5 6 1015.1 1013.3 0.0
15/08:30pm 23.5 22.4 11.9 48 6.7 SSE 9 11 5 6 1014.8 - 0.0
15/08:00pm 24.2 23.0 12.8 49 6.7 SE 11 13 6 7 1014.3 - 0.0
15/07:30pm 24.7 23.6 12.0 45 7.3 SE 9 13 5 7 1013.9 - 0.0
15/07:00pm 25.5 24.2 11.3 41 8.1 SE 9 11 5 6 1013.7 - 0.0
15/06:30pm 27.0 25.2 10.7 36 9.3 SE 11 15 6 8 1013.3 - 0.0
15/06:00pm 28.5 26.1 10.2 32 10.5 SE 13 19 7 10 1012.8 1011.0 0.0
15/05:30pm 29.6 27.0 10.7 31 10.9 ESE 15 19 8 10 1012.6 - 0.0
15/05:00pm 30.0 27.2 10.0 29 11.5 E 15 20 8 11 1012.5 - 0.0
15/04:30pm 30.3 27.2 10.3 29 11.5 ESE 17 24 9 13 1012.5 - 0.0
15/04:00pm 30.4 27.7 10.4 29 11.6 ESE 15 24 8 13 1012.6 - 0.0
15/03:30pm 30.4 27.3 10.4 29 11.6 ESE 17 22 9 12 1012.7 - 0.0
15/03:00pm 30.4 27.1 10.9 30 11.4 SE 19 30 10 16 1012.7 1010.9 0.0
15/02:30pm 30.1 26.7 10.6 30 11.3 E 19 26 10 14 1013.1 - 0.0
15/02:00pm 30.0 26.6 10.5 30 11.3 E 19 32 10 17 1013.6 - 0.0
15/01:30pm 30.0 26.2 11.0 31 11.1 ESE 22 32 12 17 1014.0 - 0.0
15/01:00pm 29.4 25.4 10.5 31 10.9 ESE 22 32 12 17 1014.4 - 0.0
15/12:30pm 28.6 24.9 10.3 32 10.5 E 20 30 11 16 1015.0 - 0.0
15/12:00pm 28.2 23.7 11.3 35 9.8 ESE 26 37 14 20 1015.7 1013.9 0.0
15/11:30am 27.6 23.9 11.6 37 9.3 E 22 32 12 17 1016.1 - 0.0
15/11:00am 26.5 21.8 10.6 37 9.1 ESE 26 37 14 20 1016.6 - 0.0
15/10:30am 25.6 21.0 11.0 40 8.3 ESE 26 33 14 18 1016.8 - 0.0
15/10:00am 24.9 20.3 11.1 42 7.9 ESE 26 35 14 19 1016.8 - 0.0
15/09:30am 23.8 19.5 10.8 44 7.3 ESE 24 39 13 21 1016.7 - 0.0
15/09:00am 22.8 19.7 11.5 49 6.4 SE 19 32 10 17 1016.6 1014.7 0.0
15/08:30am 20.8 19.2 12.8 60 4.6 SE 13 19 7 10 1016.4 - 0.0
15/08:00am 19.1 17.5 12.8 67 3.6 SE 13 17 7 9 1015.9 - 0.0
15/07:30am 17.1 16.0 13.0 77 2.3 ESE 11 13 6 7 1015.6 - 0.0
15/07:00am 16.6 15.9 11.9 74 2.6 ESE 7 11 4 6 1015.2 - 0.0
15/06:30am 17.3 15.5 12.2 72 2.9 S 13 17 7 9 1014.7 - 0.0
15/06:00am 16.7 16.2 12.5 76 2.4 S 7 9 4 5 1014.4 1012.6 0.0
15/05:30am 16.4 16.0 12.9 80 2.0 SSW 7 9 4 5 1014.2 - 0.0
15/05:00am 16.4 16.1 12.8 79 2.0 S 6 7 3 4 1014.1 - 0.0
15/04:30am 17.1 16.6 12.6 75 2.5 S 7 9 4 5 1014.1 - 0.0
15/04:00am 17.3 16.9 13.0 76 2.4 SSW 7 11 4 6 1014.0 - 0.0
15/03:30am 17.3 17.0 13.2 77 2.3 SSW 7 11 4 6 1014.1 - 0.0
15/03:00am 16.8 16.7 13.3 80 2.0 SW 6 9 3 5 1014.3 1012.5 0.0
15/02:30am 17.0 18.1 13.5 80 2.0 CALM 0 0 0 0 1014.5 - 0.0
15/02:00am 17.9 17.6 12.6 71 3.0 SSE 6 7 3 4 1014.6 - 0.0
15/01:30am 18.9 18.5 13.1 69 3.3 SSE 7 11 4 6 1014.5 - 0.0
15/01:00am 18.3 18.0 13.2 72 2.9 SE 7 9 4 5 1014.5 - 0.0
15/12:30am 18.6 18.3 13.2 71 3.1 SSE 7 9 4 5 1014.6 - 0.0
15/12:00am 19.3 18.8 12.6 65 3.8 SE 7 9 4 5 1014.8 1013.0 0.0
 
Date/Time
CST
Temp
°C
App
Temp
°C
Dew
Point
Rel
Hum
%
Delta-T
°C
Wind Press
QNH
hPa
Press
MSL
hPa
Rain
since 9 am
mm
Dir
 
Spd
km/h
Gust
km/h
Spd
kts
Gust
kts
14/11:30pm 20.8 20.3 12.5 59 4.8 SSE 7 11 4 6 1014.7 - 0.0
14/11:00pm 21.8 20.8 12.4 55 5.4 SE 9 13 5 7 1014.7 - 0.0
14/10:30pm 22.4 21.1 12.4 53 5.8 SE 11 13 6 7 1014.9 - 0.0
14/10:00pm 22.5 21.8 13.3 56 5.4 SSE 9 11 5 6 1014.9 - 0.0
14/09:30pm 22.8 21.9 13.6 56 5.4 SE 11 13 6 7 1014.8 - 0.0
14/09:00pm 21.6 21.0 13.5 60 4.7 SE 9 11 5 6 1014.7 1012.9 0.0
14/08:30pm 22.0 21.9 13.9 60 4.8 SE 7 9 4 5 1014.2 - 0.0
14/08:00pm 22.1 22.2 14.5 62 4.5 SE 7 9 4 5 1013.6 - 0.0
14/07:30pm 22.2 22.1 13.8 59 4.9 SE 7 7 4 4 1013.1 - 0.0
14/07:00pm 23.9 23.9 13.7 53 6.0 SE 6 7 3 4 1012.7 - 0.0
14/06:30pm 26.5 25.9 12.2 41 8.4 ESE 7 13 4 7 1012.3 - 0.0
14/06:00pm 28.3 26.5 10.9 34 10.0 ESE 11 17 6 9 1012.0 1010.2 0.0
14/05:30pm 28.9 27.3 10.1 31 10.7 ESE 9 11 5 6 1011.9 - 0.0
14/05:00pm 29.6 27.8 10.7 31 10.9 SSE 11 17 6 9 1011.6 - 0.0
14/04:30pm 29.5 27.5 10.1 30 11.1 SSE 11 19 6 10 1011.4 - 0.0
14/04:00pm 30.0 28.5 10.5 30 11.3 S 9 17 5 9 1011.3 - 0.0
14/03:30pm 29.7 27.7 10.3 30 11.2 SE 11 17 6 9 1011.5 - 0.0
14/03:00pm 29.3 26.6 10.4 31 10.9 SE 15 20 8 11 1011.7 1009.9 0.0
14/02:30pm 29.2 27.1 11.3 33 10.4 ESE 13 20 7 11 1012.0 - 0.0
14/02:00pm 28.8 26.3 10.9 33 10.3 E 15 24 8 13 1012.3 - 0.0
14/01:30pm 28.9 27.0 11.9 35 10.0 E 13 20 7 11 1012.6 - 0.0
14/01:00pm 28.6 25.5 11.6 34 9.9 SE 19 28 10 15 1013.3 - 0.0
14/12:30pm 27.9 24.4 11.0 35 9.7 E 20 32 11 17 1013.7 - 0.0
14/12:00pm 27.5 23.8 11.5 37 9.3 E 22 32 12 17 1014.4 1012.6 0.0
14/11:30am 26.7 22.9 11.2 38 8.9 E 22 32 12 17 1014.8 - 0.0
14/11:00am 26.1 21.5 11.1 39 8.6 ESE 26 35 14 19 1015.3 - 0.0
14/10:30am 25.6 21.4 11.0 40 8.3 ESE 24 35 13 19 1015.5 - 0.0
14/10:00am 24.7 19.9 11.6 44 7.5 ESE 28 35 15 19 1015.4 - 0.0
14/09:30am 23.6 19.5 11.3 46 7.0 ESE 24 35 13 19 1015.4 - 0.0
14/09:00am 22.4 18.2 11.2 49 6.3 ESE 24 33 13 18 1015.0 1013.2 0.0
14/08:30am 21.3 17.8 12.2 56 5.2 ESE 22 35 12 19 1014.6 - 0.0
14/08:00am 20.1 18.1 12.6 62 4.3 SE 15 20 8 11 1014.3 - 0.0
14/07:30am 18.9 17.8 13.1 69 3.3 SE 11 13 6 7 1014.0 - 0.0
14/07:00am 19.0 17.8 12.7 67 3.6 SE 11 15 6 8 1013.8 - 0.0
14/06:30am 19.5 18.5 13.4 68 3.5 SE 11 13 6 7 1013.5 - 0.0
14/06:00am 20.5 19.2 13.7 65 4.0 ESE 13 15 7 8 1013.2 1011.3 0.0
14/05:30am 20.7 19.5 14.1 66 3.9 ESE 13 15 7 8 1012.7 - 0.0
14/05:00am 20.7 20.3 15.3 71 3.2 ESE 11 15 6 8 1012.4 - 0.0
14/04:30am 20.7 20.6 15.9 74 2.9 SE 11 15 6 8 1012.4 - 0.0
14/04:00am 20.3 21.1 16.3 78 2.4 SSE 7 9 4 5 1012.2 - 0.0
14/03:30am 19.9 21.1 16.0 78 2.4 SSE 4 6 2 3 1012.2 - 0.0
14/03:00am 20.3 21.3 16.3 78 2.4 SSE 6 9 3 5 1012.2 1010.4 0.0
14/02:30am 19.3 20.2 16.2 82 1.9 SSE 6 7 3 4 1012.1 - 0.0
14/02:00am 19.7 20.6 16.0 79 2.2 SSE 6 7 3 4 1012.2 - 0.0
14/01:30am 19.1 20.2 16.5 85 1.6 SSE 6 7 3 4 1012.4 - 0.0
14/01:00am 19.2 20.1 16.1 82 1.9 SE 6 7 3 4 1012.5 - 0.0
14/12:30am 19.5 20.2 16.0 80 2.1 SE 7 7 4 4 1013.0 - 0.0
14/12:00am 20.1 20.8 15.7 76 2.7 ESE 6 7 3 4 1013.1 1011.2 0.0
 
Date/Time
CST
Temp
°C
App
Temp
°C
Dew
Point
Rel
Hum
%
Delta-T
°C
Wind Press
QNH
hPa
Press
MSL
hPa
Rain
since 9 am
mm
Dir
 
Spd
km/h
Gust
km/h
Spd
kts
Gust
kts
13/11:30pm 20.7 21.1 15.3 71 3.2 SE 7 7 4 4 1013.1 - 0.0
13/11:00pm 21.8 22.2 15.2 66 4.0 SSE 7 7 4 4 1013.2 - 0.0
13/10:30pm 22.8 22.9 15.4 63 4.5 SSE 9 11 5 6 1013.4 - 0.0
13/10:00pm 22.8 23.1 15.9 65 4.2 SE 9 11 5 6 1013.3 - 0.0
13/09:30pm 22.9 23.3 16.2 66 4.1 SSE 9 13 5 7 1013.3 - 0.0
13/09:00pm 22.9 23.8 16.7 68 3.8 SE 7 9 4 5 1013.2 1011.3 0.0
13/08:30pm 23.3 24.3 16.8 67 4.0 SE 7 9 4 5 1013.0 - 0.0
13/08:00pm 23.8 24.4 16.8 65 4.4 SE 9 11 5 6 1012.7 - 0.0
13/07:30pm 24.3 25.0 16.0 60 5.1 SE 7 9 4 5 1012.2 - 0.0
13/07:00pm 25.3 26.0 16.2 57 5.6 SE 7 9 4 5 1011.8 - 0.0
13/06:30pm 26.8 27.2 15.2 49 7.1 SE 7 9 4 5 1011.5 - 0.0
13/06:00pm 28.0 27.3 14.3 43 8.3 SSE 11 15 6 8 1011.1 1009.2 0.0
13/05:30pm 28.3 27.7 13.4 40 8.9 SE 9 13 5 7 1010.9 - 0.0
13/05:00pm 30.0 28.7 13.7 37 9.9 SE 13 20 7 11 1010.7 - 0.0

Other Formats:

Comma delimited format used in spreadsheet applications
http://www.bom.gov.au/fwo/IDD60801/IDD60801.94231.axf

JavaScript Object Notation format (JSON) in row-major order
http://www.bom.gov.au/fwo/IDD60801/IDD60801.94231.json